Time;durP1;ratioP1;P1;durP2;ratioP2;P2;SDS_P1;SDS_P2;PMS_P1;PMS_P2;Temp;Humidity;BMP_temperature;BMP_pressure;BME280_temperature;BME280_humidity;BME280_pressure;Samples;Min_cycle;Max_cycle;Signal;HPM_P1;HPM_P2
2021/10/18 00:02:17;;;;;;;36.28;25.10;;;;;;;9.41;100.00;93667.00;5032838;28;20413;-85
2021/10/18 00:04:44;;;;;;;41.53;26.52;;;;;;;9.01;100.00;93608.66;5033187;28;20103;-85
2021/10/18 00:07:11;;;;;;;38.28;26.00;;;;;;;9.42;100.00;93663.47;5032941;28;20057;-85
2021/10/18 00:09:38;;;;;;;37.40;25.83;;;;;;;9.43;100.00;93668.41;5033067;28;20045;-85
2021/10/18 00:12:07;;;;;;;36.38;23.70;;;;;;;8.97;100.00;93599.78;5033129;28;20053;-86
2021/10/18 00:14:34;;;;;;;34.42;23.65;;;;;;;9.48;100.00;93657.56;5032679;28;20055;-86
2021/10/18 00:17:01;;;;;;;37.50;25.33;;;;;;;8.72;100.00;93549.81;5032838;28;20049;-86
2021/10/18 00:19:28;;;;;;;40.33;25.65;;;;;;;9.44;100.00;93664.09;5032524;28;20394;-86
2021/10/18 00:21:55;;;;;;;35.65;22.67;;;;;;;8.79;100.00;93555.75;5032818;28;20061;-86
2021/10/18 00:24:21;;;;;;;38.03;24.63;;;;;;;9.35;100.00;93648.84;5032893;28;20068;-85
2021/10/18 00:26:48;;;;;;;38.40;24.35;;;;;;;8.85;100.00;93577.28;5032770;28;20049;-86
2021/10/18 00:29:16;;;;;;;33.45;22.33;;;;;;;9.15;100.00;93623.13;5032604;28;20042;-85
2021/10/18 00:31:43;;;;;;;25.85;18.25;;;;;;;8.82;100.00;93582.75;5032376;28;20045;-85
2021/10/18 00:34:10;;;;;;;30.25;20.75;;;;;;;9.32;100.00;93656.13;5032209;28;20049;-86
2021/10/18 00:36:37;;;;;;;40.95;25.10;;;;;;;8.65;100.00;93562.56;5032583;28;20056;-86
2021/10/18 00:39:05;;;;;;;39.33;25.67;;;;;;;9.08;100.00;93615.41;5032215;28;20053;-84
2021/10/18 00:41:32;;;;;;;47.10;29.73;;;;;;;8.91;100.00;93602.13;5032392;28;20046;-84
2021/10/18 00:43:59;;;;;;;44.80;28.33;;;;;;;9.33;100.00;93652.59;5032221;28;20151;-84
2021/10/18 00:46:28;;;;;;;42.85;26.40;;;;;;;8.90;100.00;93594.63;5032166;28;20056;-84
2021/10/18 00:48:55;;;;;;;38.60;24.15;;;;;;;8.81;100.00;93586.31;5032379;28;20396;-86
2021/10/18 00:51:24;;;;;;;35.53;23.50;;;;;;;9.31;100.00;93654.56;5032089;28;20049;-85
2021/10/18 00:53:52;;;;;;;32.60;20.95;;;;;;;9.31;100.00;93650.19;5032177;28;20072;-85
2021/10/18 00:56:20;;;;;;;32.33;21.38;;;;;;;9.06;100.00;93617.38;5032339;28;20067;-85
2021/10/18 00:58:49;;;;;;;28.88;20.75;;;;;;;9.27;100.00;93653.34;5032183;28;20045;-85
2021/10/18 01:01:16;;;;;;;34.97;23.08;;;;;;;9.16;100.00;93639.31;5031832;28;20099;-84
2021/10/18 01:03:44;;;;;;;28.05;19.58;;;;;;;9.23;100.00;93646.03;5031766;28;20060;-83
2021/10/18 01:06:11;;;;;;;32.65;20.00;;;;;;;9.12;100.00;93630.41;5030711;28;20517;-83
2021/10/18 01:08:39;;;;;;;30.63;20.45;;;;;;;9.09;100.00;93632.34;5031626;28;20492;-83
2021/10/18 01:11:06;;;;;;;30.25;21.20;;;;;;;9.20;100.00;93643.84;5031918;28;20077;-83
2021/10/18 01:13:34;;;;;;;28.27;19.38;;;;;;;8.99;100.00;93610.63;5031548;28;20048;-83
2021/10/18 01:16:02;;;;;;;28.15;18.98;;;;;;;9.20;100.00;93637.94;5031715;28;20508;-83
2021/10/18 01:18:29;;;;;;;28.05;18.55;;;;;;;9.21;100.00;93639.50;5031550;28;20100;-83
2021/10/18 01:20:57;;;;;;;27.42;18.85;;;;;;;9.21;100.00;93642.88;5031764;28;20103;-83
2021/10/18 01:23:24;;;;;;;27.10;18.13;;;;;;;9.22;100.00;93638.53;5031379;28;20060;-84
2021/10/18 01:25:51;;;;;;;31.27;19.33;;;;;;;9.11;100.00;93619.34;5031314;28;20045;-84
2021/10/18 01:28:18;;;;;;;28.88;19.38;;;;;;;8.72;100.00;93562.63;5031672;28;20045;-84
2021/10/18 01:30:45;;;;;;;24.85;16.77;;;;;;;9.21;100.00;93632.63;5031654;28;20068;-83
2021/10/18 01:33:12;;;;;;;27.05;17.33;;;;;;;9.02;100.00;93608.47;5031440;28;20049;-83
2021/10/18 01:35:39;;;;;;;25.90;17.15;;;;;;;9.18;100.00;93633.00;5031610;28;20045;-83
2021/10/18 01:38:07;;;;;;;26.27;16.02;;;;;;;9.01;100.00;93606.09;5031499;28;20136;-83
2021/10/18 01:40:34;;;;;;;23.55;15.20;;;;;;;9.07;100.00;93620.72;5031238;28;20050;-83
2021/10/18 01:43:01;;;;;;;21.88;14.98;;;;;;;8.99;100.00;93602.94;5031066;28;20046;-84
2021/10/18 01:45:29;;;;;;;22.45;15.07;;;;;;;9.16;100.00;93634.19;5031015;28;20364;-85
2021/10/18 01:47:56;;;;;;;22.80;14.23;;;;;;;9.00;100.00;93610.44;5031044;28;20042;-85
2021/10/18 01:50:24;;;;;;;24.77;16.02;;;;;;;8.60;100.00;93556.44;5031289;28;20136;-85
2021/10/18 01:52:52;;;;;;;24.52;16.45;;;;;;;8.53;100.00;93554.63;5030739;28;20049;-85
2021/10/18 01:55:22;;;;;;;26.95;17.58;;;;;;;8.73;100.00;93578.75;5030992;28;20052;-85
2021/10/18 01:57:50;;;;;;;24.98;16.17;;;;;;;8.79;100.00;93580.56;5030969;28;20531;-85
2021/10/18 02:00:17;;;;;;;26.48;17.98;;;;;;;9.12;100.00;93635.53;5030962;28;20049;-84
2021/10/18 02:02:46;;;;;;;28.95;18.27;;;;;;;9.11;100.00;93634.72;5030700;28;20071;-85
2021/10/18 02:05:13;;;;;;;28.35;17.95;;;;;;;8.83;100.00;93602.25;5030728;28;20128;-85
2021/10/18 02:07:42;;;;;;;30.25;19.05;;;;;;;9.13;100.00;93634.56;5030909;28;20053;-85
2021/10/18 02:10:09;;;;;;;34.20;22.08;;;;;;;9.11;100.00;93639.84;5030944;28;20053;-85
2021/10/18 02:12:38;;;;;;;37.42;21.83;;;;;;;8.72;100.00;93587.44;5030820;28;20477;-85
2021/10/18 02:15:06;;;;;;;34.83;21.90;;;;;;;8.53;100.00;93567.41;5030761;28;20056;-84
2021/10/18 02:17:33;;;;;;;37.33;23.83;;;;;;;8.76;100.00;93615.06;5030514;28;20052;-84
2021/10/18 02:20:00;;;;;;;40.83;27.00;;;;;;;8.11;100.00;93535.81;5030336;28;20052;-84
2021/10/18 02:22:27;;;;;;;39.72;26.58;;;;;;;8.41;100.00;93572.25;5030409;28;20041;-84
2021/10/18 02:24:54;;;;;;;38.17;25.33;;;;;;;8.90;100.00;93645.88;5030757;28;20045;-84
2021/10/18 02:27:20;;;;;;;39.72;25.63;;;;;;;8.50;100.00;93585.69;5030517;28;20180;-84
2021/10/18 02:29:49;;;;;;;35.60;24.40;;;;;;;8.79;100.00;93629.22;5030411;28;20075;-84
2021/10/18 02:32:17;;;;;;;41.60;26.02;;;;;;;8.92;100.00;93639.56;5030510;28;20050;-84
2021/10/18 02:34:44;;;;;;;46.08;28.08;;;;;;;8.74;100.00;93605.97;5030393;28;20133;-84
2021/10/18 02:37:10;;;;;;;38.78;23.65;;;;;;;8.99;100.00;93643.94;5030169;28;20057;-84
2021/10/18 02:39:37;;;;;;;33.88;23.15;;;;;;;8.98;100.00;93640.56;5030059;28;20050;-84
2021/10/18 02:42:04;;;;;;;35.67;21.27;;;;;;;8.69;100.00;93591.16;5029879;28;20571;-84
2021/10/18 02:44:31;;;;;;;35.00;21.35;;;;;;;8.93;100.00;93630.09;5029707;28;20053;-84
2021/10/18 02:47:00;;;;;;;32.63;20.70;;;;;;;9.05;100.00;93643.97;5029933;28;20475;-84
2021/10/18 02:49:26;;;;;;;32.42;19.15;;;;;;;8.50;100.00;93561.84;5029799;28;20659;-85
2021/10/18 02:51:53;;;;;;;31.13;18.80;;;;;;;8.51;100.00;93560.88;5030038;28;20548;-85
2021/10/18 02:54:20;;;;;;;32.35;18.60;;;;;;;8.42;100.00;93545.66;5030082;28;20041;-86
2021/10/18 02:56:47;;;;;;;34.63;20.20;;;;;;;8.69;100.00;93578.34;5029658;28;20057;-86
2021/10/18 02:59:14;;;;;;;28.42;17.05;;;;;;;9.18;100.00;93648.41;5029625;28;20046;-86
2021/10/18 03:01:41;;;;;;;28.88;18.80;;;;;;;9.18;100.00;93647.59;5029856;28;20053;-86
2021/10/18 03:04:09;;;;;;;30.17;17.77;;;;;;;9.17;100.00;93646.78;5029511;28;20057;-87
2021/10/18 03:06:36;;;;;;;25.05;17.00;;;;;;;9.17;100.00;93648.56;5029774;28;20412;-87
2021/10/18 03:09:03;;;;;;;25.13;17.50;;;;;;;8.67;100.00;93575.97;5029796;28;20057;-87
2021/10/18 03:11:30;;;;;;;27.02;18.65;;;;;;;8.64;100.00;93576.38;5029201;28;20050;-87
2021/10/18 03:13:57;;;;;;;28.38;17.92;;;;;;;8.63;100.00;93577.34;5029752;28;20048;-87
2021/10/18 03:16:24;;;;;;;26.30;16.90;;;;;;;8.39;100.00;93533.22;5029331;28;20049;-86
2021/10/18 03:18:50;;;;;;;25.60;17.10;;;;;;;9.20;100.00;93650.75;5029170;28;20056;-86
2021/10/18 03:21:19;;;;;;;26.63;16.92;;;;;;;9.16;100.00;93644.44;5029381;28;20045;-86
2021/10/18 03:23:46;;;;;;;27.63;18.00;;;;;;;9.21;100.00;93653.13;5029143;28;20067;-86
2021/10/18 03:26:15;;;;;;;27.98;16.42;;;;;;;9.13;100.00;93637.91;5029314;28;20053;-86
2021/10/18 03:28:41;;;;;;;30.13;19.33;;;;;;;8.93;100.00;93615.53;5029029;28;20046;-86
2021/10/18 03:31:08;;;;;;;32.63;20.25;;;;;;;9.25;100.00;93653.53;5029599;28;20076;-86
2021/10/18 03:33:36;;;;;;;36.15;21.50;;;;;;;8.93;100.00;93601.91;5029871;28;20065;-85
2021/10/18 03:36:02;;;;;;;47.30;25.00;;;;;;;9.14;100.00;93638.69;5029762;28;20049;-84
2021/10/18 03:38:31;;;;;;;36.63;22.48;;;;;;;9.05;100.00;93638.06;5029486;28;20559;-84
2021/10/18 03:40:58;;;;;;;34.42;21.73;;;;;;;8.71;100.00;93590.97;5029922;28;20057;-84
2021/10/18 03:43:25;;;;;;;34.42;21.48;;;;;;;8.68;100.00;93582.69;5029542;28;20103;-83
2021/10/18 03:45:52;;;;;;;36.47;21.70;;;;;;;9.21;100.00;93663.38;5029813;28;20084;-84
2021/10/18 03:48:19;;;;;;;31.08;21.15;;;;;;;8.74;100.00;93596.50;5029617;28;20501;-83
2021/10/18 03:50:46;;;;;;;32.60;20.95;;;;;;;9.16;100.00;93647.00;5029883;28;20116;-83
2021/10/18 03:53:12;;;;;;;31.50;21.15;;;;;;;9.26;100.00;93656.91;5029427;28;20054;-83
2021/10/18 03:55:41;;;;;;;33.90;21.33;;;;;;;9.26;100.00;93662.78;5029819;28;20053;-83
2021/10/18 03:58:08;;;;;;;28.73;19.63;;;;;;;9.00;100.00;93623.25;5029349;28;20454;-83
2021/10/18 04:00:35;;;;;;;33.03;22.95;;;;;;;9.26;100.00;93662.03;5029166;28;20042;-84
2021/10/18 04:03:01;;;;;;;38.85;23.58;;;;;;;9.26;100.00;93660.22;5028806;28;20099;-83
2021/10/18 04:05:28;;;;;;;33.50;22.95;;;;;;;9.28;100.00;93655.72;5029174;28;20086;-83
2021/10/18 04:07:55;;;;;;;36.63;23.58;;;;;;;9.27;100.00;93661.03;5028811;28;20053;-83
2021/10/18 04:10:22;;;;;;;31.80;19.92;;;;;;;9.29;100.00;93664.19;5029130;28;20056;-83
2021/10/18 04:12:50;;;;;;;28.15;19.65;;;;;;;9.24;100.00;93657.06;5028975;28;20057;-83
2021/10/18 04:15:17;;;;;;;32.47;20.98;;;;;;;9.04;100.00;93631.34;5029149;28;20094;-83
2021/10/18 04:17:44;;;;;;;28.23;18.95;;;;;;;9.09;100.00;93634.13;5028978;28;20049;-83
2021/10/18 04:20:11;;;;;;;31.45;18.55;;;;;;;9.28;100.00;93671.09;5028618;28;20045;-85
2021/10/18 04:22:38;;;;;;;30.83;19.08;;;;;;;8.65;100.00;93582.25;5028980;28;20049;-85
2021/10/18 04:25:07;;;;;;;28.83;19.60;;;;;;;8.67;100.00;93585.44;5028790;28;20050;-84
2021/10/18 04:27:33;;;;;;;31.98;19.35;;;;;;;9.23;100.00;93665.75;5028831;28;20539;-85
2021/10/18 04:30:02;;;;;;;34.80;20.90;;;;;;;8.75;100.00;93597.31;5028786;28;20057;-85
2021/10/18 04:32:28;;;;;;;38.72;23.17;;;;;;;9.23;100.00;93673.44;5028796;28;20372;-86
2021/10/18 04:34:55;;;;;;;41.33;24.15;;;;;;;9.14;100.00;93662.56;5028888;28;20103;-86
2021/10/18 04:37:22;;;;;;;41.67;26.00;;;;;;;8.77;100.00;93613.28;5029019;28;20053;-86
2021/10/18 04:39:49;;;;;;;32.50;24.35;;;;;;;8.37;100.00;93545.44;5028372;28;20050;-86
2021/10/18 04:42:16;;;;;;;35.08;24.75;;;;;;;9.08;100.00;93655.63;5031362;28;20045;-86
2021/10/18 04:44:43;;;;;;;29.83;21.73;;;;;;;8.73;100.00;93600.06;5032418;28;20123;-86
2021/10/18 04:47:11;;;;;;;30.23;19.13;;;;;;;9.21;100.00;93665.13;5031913;28;20501;-86
2021/10/18 04:49:38;;;;;;;27.17;18.13;;;;;;;9.20;100.00;93666.94;5032068;28;21302;-86
2021/10/18 04:52:05;;;;;;;27.10;19.08;;;;;;;9.22;100.00;93669.31;5032323;28;20045;-89
2021/10/18 04:54:32;;;;;;;25.42;17.60;;;;;;;9.26;100.00;93673.06;5031802;28;20059;-86
2021/10/18 04:56:59;;;;;;;32.08;19.63;;;;;;;8.74;100.00;93599.06;5031939;28;20053;-86
2021/10/18 04:59:25;;;;;;;27.52;20.02;;;;;;;9.17;100.00;93666.50;5031886;28;20053;-87
2021/10/18 05:01:52;;;;;;;27.55;19.15;;;;;;;8.84;100.00;93614.09;5031744;28;20049;-86
2021/10/18 05:04:20;;;;;;;30.25;21.63;;;;;;;9.26;100.00;93682.53;5032118;28;20060;-84
2021/10/18 05:06:47;;;;;;;30.48;20.33;;;;;;;9.27;100.00;93681.53;5032081;28;20054;-84
2021/10/18 05:09:14;;;;;;;45.67;26.02;;;;;;;9.26;100.00;93679.97;5031936;28;20057;-84
2021/10/18 05:11:41;;;;;;;59.88;31.35;;;;;;;9.31;100.00;93687.88;5031751;28;20056;-84
2021/10/18 05:14:08;;;;;;;66.07;34.17;;;;;;;9.32;100.00;93684.34;5031507;28;20049;-84
2021/10/18 05:16:35;;;;;;;75.63;38.45;;;;;;;9.31;100.00;93686.09;5031565;28;20132;-84
2021/10/18 05:19:02;;;;;;;59.17;32.80;;;;;;;9.31;100.00;93685.31;5031808;28;20053;-84
2021/10/18 05:21:30;;;;;;;58.50;31.80;;;;;;;9.13;100.00;93657.63;5031817;28;20378;-84
2021/10/18 05:23:57;;;;;;;56.45;33.33;;;;;;;9.35;100.00;93696.75;5031683;28;20464;-84
2021/10/18 05:26:24;;;;;;;59.10;34.15;;;;;;;8.84;100.00;93631.25;5031714;28;20057;-84
2021/10/18 05:28:50;;;;;;;54.15;31.77;;;;;;;9.36;100.00;93695.81;5031263;28;20041;-84
2021/10/18 05:31:17;;;;;;;51.92;32.42;;;;;;;8.89;100.00;93626.34;5031199;28;20062;-84
2021/10/18 05:33:44;;;;;;;46.15;28.23;;;;;;;9.41;100.00;93697.78;5031242;28;20054;-84
2021/10/18 05:36:11;;;;;;;41.85;27.95;;;;;;;9.47;100.00;93697.81;5031397;28;20046;-86
2021/10/18 05:38:39;;;;;;;43.22;26.15;;;;;;;9.35;100.00;93684.75;5031240;28;20045;-84
2021/10/18 05:41:07;;;;;;;44.15;25.80;;;;;;;9.28;100.00;93675.44;5031135;28;20045;-84
2021/10/18 05:43:34;;;;;;;29.85;20.33;;;;;;;9.46;100.00;93705.69;5030965;28;20132;-84
2021/10/18 05:46:01;;;;;;;32.13;20.58;;;;;;;8.78;100.00;93612.28;5031029;28;20512;-84
2021/10/18 05:48:28;;;;;;;25.60;16.63;;;;;;;9.31;100.00;93713.53;5030809;28;20045;-83
2021/10/18 05:50:55;;;;;;;26.73;17.85;;;;;;;8.87;100.00;93664.97;5031409;28;20060;-84
2021/10/18 05:53:21;;;;;;;35.70;21.88;;;;;;;9.17;100.00;93718.56;5030529;28;20053;-85
2021/10/18 05:55:49;;;;;;;30.35;19.92;;;;;;;9.08;100.00;93723.03;5030862;28;20555;-85
2021/10/18 05:58:16;;;;;;;31.70;19.27;;;;;;;8.88;100.00;93697.28;5030939;28;20045;-85
2021/10/18 06:00:45;;;;;;;32.42;20.20;;;;;;;8.33;100.00;93612.56;5031078;28;20053;-84
2021/10/18 06:03:13;;;;;;;32.20;19.73;;;;;;;8.73;100.00;93666.63;5030554;28;20544;-85
2021/10/18 06:05:44;;;;;;;29.65;18.40;;;;;;;8.79;100.00;93668.44;5030743;28;20111;-85
2021/10/18 06:08:12;;;;;;;27.58;18.45;;;;;;;9.19;100.00;93714.03;5030565;28;20054;-85
2021/10/18 06:10:39;;;;;;;26.77;18.00;;;;;;;9.00;100.00;93677.06;5030911;28;20053;-85
2021/10/18 06:13:08;;;;;;;26.33;17.25;;;;;;;9.05;100.00;93686.75;5030900;28;20068;-85
2021/10/18 06:15:36;;;;;;;28.50;18.33;;;;;;;9.28;100.00;93703.63;5030522;28;20057;-85
2021/10/18 06:18:11;;;;;;;27.25;17.77;;;;;;;9.64;100.00;93748.81;5030455;28;20045;-86
2021/10/18 06:20:39;;;;;;;33.90;19.20;;;;;;;9.57;100.00;93730.00;5030496;28;20096;-85
2021/10/18 06:23:06;;;;;;;33.83;19.70;;;;;;;9.34;100.00;93690.84;5030316;28;20504;-85
2021/10/18 06:25:33;;;;;;;32.40;19.25;;;;;;;9.39;100.00;93700.53;5030110;28;20049;-86
2021/10/18 06:28:01;;;;;;;24.30;16.00;;;;;;;9.69;100.00;93738.75;5030383;28;21294;-86
2021/10/18 06:30:29;;;;;;;23.73;15.85;;;;;;;9.73;100.00;93760.47;5030367;28;20057;-86
2021/10/18 06:32:56;;;;;;;20.83;14.40;;;;;;;9.35;100.00;93766.78;5030145;28;20049;-84
2021/10/18 06:35:23;;;;;;;24.77;15.45;;;;;;;9.06;100.00;93744.69;5030113;28;20558;-85
2021/10/18 06:37:51;;;;;;;19.60;13.77;;;;;;;8.97;100.00;93745.84;5030553;28;20061;-85
2021/10/18 06:40:18;;;;;;;18.95;11.93;;;;;;;8.72;100.00;93741.09;5029264;28;20068;-85
2021/10/18 06:42:45;;;;;;;27.15;17.52;;;;;;;8.15;100.00;93696.47;5028537;28;20052;-85
2021/10/18 06:45:12;;;;;;;63.70;33.05;;;;;;;8.42;100.00;93758.16;5030010;28;20417;-85
2021/10/18 06:47:40;;;;;;;24.23;16.98;;;;;;;8.57;100.00;93772.69;5030062;28;20111;-86
2021/10/18 06:50:09;;;;;;;24.13;16.48;;;;;;;8.43;100.00;93779.44;5029791;28;20452;-86
2021/10/18 06:52:38;;;;;;;25.98;16.40;;;;;;;8.66;100.00;93776.72;5030155;28;20049;-85
2021/10/18 06:55:08;;;;;;;34.05;20.88;;;;;;;8.40;100.00;93743.94;5029971;28;20126;-85
2021/10/18 06:57:35;;;;;;;24.83;16.83;;;;;;;8.39;100.00;93721.88;5029852;28;20843;-85
2021/10/18 07:00:02;;;;;;;24.33;16.30;;;;;;;8.76;100.00;93744.88;5029684;28;20467;-86
2021/10/18 07:02:28;;;;;;;23.23;16.77;;;;;;;8.91;100.00;93737.09;5029682;28;20241;-85
2021/10/18 07:04:57;;;;;;;23.45;15.18;;;;;;;8.54;100.00;93709.84;5029038;28;20053;-85
2021/10/18 07:07:26;;;;;;;22.75;16.10;;;;;;;9.05;100.00;93797.75;5029917;28;20386;-86
2021/10/18 07:09:59;;;;;;;20.90;13.95;;;;;;;8.71;100.00;93724.97;5029955;28;20049;-86
2021/10/18 07:12:27;;;;;;;20.15;13.35;;;;;;;9.17;100.00;93803.13;5029681;28;20045;-86
2021/10/18 07:14:54;;;;;;;37.90;22.55;;;;;;;9.06;100.00;93806.19;5029390;28;20053;-86
2021/10/18 07:17:22;;;;;;;27.73;17.45;;;;;;;9.17;100.00;93803.13;5029412;28;20052;-86
2021/10/18 07:19:49;;;;;;;51.63;31.48;;;;;;;9.28;100.00;93794.16;5029553;28;20472;-85
2021/10/18 07:22:18;;;;;;;26.33;16.88;;;;;;;9.30;100.00;93809.34;5029365;28;20056;-85
2021/10/18 07:24:45;;;;;;;24.73;16.73;;;;;;;9.05;100.00;93807.19;5029533;28;20132;-85
2021/10/18 07:27:12;;;;;;;36.95;22.17;;;;;;;8.51;100.00;93728.09;5029354;28;20052;-85
2021/10/18 07:29:39;;;;;;;21.98;14.07;;;;;;;8.24;100.00;93706.59;5029547;28;20076;-86
2021/10/18 07:32:07;;;;;;;22.10;14.07;;;;;;;8.66;100.00;93750.31;5029521;28;20054;-86
2021/10/18 07:34:34;;;;;;;17.63;13.00;;;;;;;8.48;100.00;93710.53;5029688;28;20053;-86
2021/10/18 07:37:01;;;;;;;18.02;11.98;;;;;;;8.82;100.00;93803.88;5029515;28;20140;-85
2021/10/18 07:39:29;;;;;;;20.73;14.30;;;;;;;9.12;100.00;93814.94;5029357;28;20398;-85
2021/10/18 07:41:58;;;;;;;23.50;15.18;;;;;;;9.18;100.00;93822.69;5029046;28;20544;-85
2021/10/18 07:44:26;;;;;;;54.88;32.10;;;;;;;8.75;100.00;93763.78;5029253;28;20143;-86
2021/10/18 07:46:55;;;;;;;20.73;14.07;;;;;;;8.96;100.00;93786.03;5028915;28;20512;-85
2021/10/18 07:49:23;;;;;;;24.40;16.60;;;;;;;9.43;100.00;93814.56;5029190;28;20049;-86
2021/10/18 07:51:50;;;;;;;39.53;23.80;;;;;;;8.75;100.00;93713.34;5028775;28;20091;-85
2021/10/18 07:54:17;;;;;;;21.67;14.85;;;;;;;8.66;100.00;93760.56;5029313;28;20062;-85
2021/10/18 07:56:45;;;;;;;22.55;15.82;;;;;;;8.98;100.00;93761.00;5028900;28;20053;-86
2021/10/18 07:59:12;;;;;;;24.25;16.27;;;;;;;9.43;100.00;93817.13;5029255;28;20711;-86
2021/10/18 08:01:39;;;;;;;24.90;17.33;;;;;;;9.78;100.00;93821.50;5028796;28;20050;-86
2021/10/18 08:04:06;;;;;;;19.48;13.60;;;;;;;9.26;100.00;93747.38;5029069;28;20049;-86
2021/10/18 08:06:33;;;;;;;23.67;15.90;;;;;;;9.25;100.00;93762.97;5029084;28;20049;-86
2021/10/18 08:09:00;;;;;;;18.35;12.63;;;;;;;9.92;100.00;93824.13;5029058;28;20054;-86
2021/10/18 08:11:27;;;;;;;21.13;14.73;;;;;;;9.69;100.00;93753.34;5028775;28;20069;-87
2021/10/18 08:13:55;;;;;;;32.60;21.60;;;;;;;9.95;100.00;93746.75;5029282;28;20050;-86
2021/10/18 08:16:22;;;;;;;35.22;23.42;;;;;;;10.59;100.00;93816.69;5032633;28;20077;-86
2021/10/18 08:18:50;;;;;;;32.50;22.35;;;;;;;10.78;100.00;93806.66;5032835;28;20057;-86
2021/10/18 08:21:17;;;;;;;37.10;23.75;;;;;;;10.50;100.00;93745.91;5033248;28;20058;-86
2021/10/18 08:23:44;;;;;;;27.23;18.63;;;;;;;10.86;100.00;93782.50;5032601;28;20049;-86
2021/10/18 08:26:12;;;;;;;34.30;21.10;;;;;;;11.38;100.00;93823.84;5032632;28;20504;-88
2021/10/18 08:28:39;;;;;;;29.05;19.48;;;;;;;11.40;100.00;93803.09;5032530;28;20045;-86
2021/10/18 08:31:09;;;;;;;27.50;18.73;;;;;;;11.62;100.00;93812.16;5032530;28;20061;-86
2021/10/18 08:33:36;;;;;;;21.63;15.35;;;;;;;11.29;100.00;93773.63;5031712;28;20528;-87
2021/10/18 08:36:05;;;;;;;16.60;12.57;;;;;;;11.33;100.00;93805.66;5032650;28;20049;-87
2021/10/18 08:38:47;;;;;;;27.25;16.17;;;;;;;11.62;100.00;93819.09;5032588;28;20045;-87
2021/10/18 08:41:16;;;;;;;26.70;16.13;;;;;;;11.44;100.00;93771.59;5032234;28;20053;-86
2021/10/18 08:46:37;;;;;;;21.77;16.08;;;;;;;12.10;100.00;93827.50;5007806;28;20049;-86
2021/10/18 08:49:04;;;;;;;24.85;17.15;;;;;;;11.41;100.00;93715.44;5032065;28;20543;-86
2021/10/18 08:51:31;;;;;;;31.77;21.45;;;;;;;12.23;100.00;93824.09;5035443;28;20052;-85
2021/10/18 08:53:58;;;;;;;28.63;20.50;;;;;;;12.23;100.00;93824.09;5041312;28;20489;-86
2021/10/18 08:56:25;;;;;;;25.05;18.02;;;;;;;12.31;100.00;93818.69;5031957;28;20045;-83
2021/10/18 08:58:52;;;;;;;26.92;17.65;;;;;;;12.01;100.00;93757.41;5030936;28;20459;-86
2021/10/18 09:01:19;;;;;;;29.23;20.15;;;;;;;12.49;100.00;93820.59;5034286;28;20055;-86
2021/10/18 09:03:47;;;;;;;30.08;20.42;;;;;;;12.14;100.00;93754.00;5041282;28;20053;-87
2021/10/18 09:06:18;;;;;;;27.45;18.88;;;;;;;12.20;100.00;93758.34;5040887;28;20423;-87
2021/10/18 09:08:47;;;;;;;34.75;20.88;;;;;;;12.28;100.00;93760.66;5038319;28;20046;-87
2021/10/18 09:11:17;;;;;;;21.25;15.52;;;;;;;12.54;100.00;93799.38;5040788;28;20124;-85
2021/10/18 09:13:55;;;;;;;18.48;13.35;;;;;;;12.16;100.00;93741.72;5040904;28;20056;-86
2021/10/18 09:16:24;;;;;;;24.45;15.98;;;;;;;12.35;100.00;93765.00;5048814;28;20084;-86
2021/10/18 09:19:01;;;;;;;19.90;14.93;;;;;;;12.78;100.00;93821.03;5034732;28;20050;-86
2021/10/18 09:21:29;;;;;;;22.20;16.20;;;;;;;12.78;100.00;93823.63;5040190;28;20037;-85
2021/10/18 09:23:56;;;;;;;23.63;16.98;;;;;;;12.71;100.00;93794.53;5037113;28;20133;-85
2021/10/18 09:26:25;;;;;;;21.98;16.65;;;;;;;12.68;100.00;93784.63;5030960;28;20140;-85
2021/10/18 09:28:54;;;;;;;19.20;13.23;;;;;;;13.07;100.00;93825.81;5031503;28;20049;-87
2021/10/18 09:31:21;;;;;;;22.30;15.55;;;;;;;12.74;100.00;93826.81;5031556;28;20089;-86
2021/10/18 09:33:55;;;;;;;28.25;19.60;;;;;;;12.63;100.00;93785.25;5034038;28;20124;-86
2021/10/18 09:36:31;;;;;;;32.42;21.52;;;;;;;12.99;100.00;93819.13;5030744;28;20120;-86
2021/10/18 09:39:13;;;;;;;27.20;19.00;;;;;;;12.76;100.00;93779.22;5029381;28;20140;-86
2021/10/18 09:41:43;;;;;;;29.65;19.77;;;;;;;12.91;100.00;93789.22;5038697;28;20408;-86
2021/10/18 09:44:18;;;;;;;35.92;25.85;;;;;;;13.11;100.00;93803.78;5029413;28;20107;-86
2021/10/18 09:47:04;;;;;;;26.20;18.58;;;;;;;12.79;100.00;93755.63;5027170;28;20046;-87
2021/10/18 10:52:54;;;;;;;23.80;15.52;;;;;;;13.20;100.00;93802.50;5101847;28;20533;-86
2021/10/18 10:55:25;;;;;;;20.17;14.98;;;;;;;13.34;100.00;93805.75;5102153;28;20040;-88
2021/10/18 10:57:54;;;;;;;17.00;13.63;;;;;;;13.48;100.00;93806.47;5103289;28;20048;-88
2021/10/18 11:00:36;;;;;;;18.40;13.85;;;;;;;13.68;100.00;93802.91;5102925;28;20158;-87
2021/10/18 11:03:39;;;;;;;19.50;13.93;;;;;;;13.66;100.00;93799.75;5103145;28;20055;-87
2021/10/18 11:06:08;;;;;;;18.65;13.38;;;;;;;13.62;100.00;93777.97;5102967;28;20047;-86
2021/10/18 11:08:37;;;;;;;22.15;16.40;;;;;;;13.78;100.00;93799.81;5102779;28;20055;-87
2021/10/18 11:11:15;;;;;;;18.73;13.32;;;;;;;13.70;100.00;93798.31;5104276;28;20105;-88
2021/10/18 11:13:48;;;;;;;18.77;13.48;;;;;;;13.58;100.00;93762.13;5102732;28;20047;-91
2021/10/18 11:16:16;;;;;;;20.75;14.07;;;;;;;13.96;100.00;93788.72;5103579;28;20075;-88
2021/10/18 11:18:46;;;;;;;17.85;13.77;;;;;;;14.06;100.00;93788.19;5102675;28;20047;-87
2021/10/18 11:21:16;;;;;;;16.85;13.10;;;;;;;14.11;100.00;93778.00;5102385;28;20050;-87
2021/10/18 11:24:06;;;;;;;18.63;12.75;;;;;;;14.21;99.45;93780.06;5102525;28;20052;-87
2021/10/18 11:26:37;;;;;;;15.43;11.48;;;;;;;14.28;98.68;93790.34;5101997;28;20060;-87
2021/10/18 11:29:06;;;;;;;14.82;10.45;;;;;;;14.25;98.34;93780.41;5102439;28;20044;-87
2021/10/18 11:31:35;;;;;;;13.20;10.07;;;;;;;14.26;96.05;93787.19;5102469;28;20055;-86
2021/10/18 11:34:04;;;;;;;14.90;11.65;;;;;;;13.76;98.87;93779.38;5102370;28;20055;-87
2021/10/18 11:36:32;;;;;;;16.60;11.98;;;;;;;13.63;100.00;93782.91;5102416;28;20394;-88
2021/10/18 11:39:14;;;;;;;16.75;11.52;;;;;;;13.79;100.00;93778.16;5101957;28;20052;-87
2021/10/18 11:42:08;;;;;;;17.05;11.60;;;;;;;13.97;100.00;93772.22;5102064;28;20059;-89
2021/10/18 11:44:43;;;;;;;15.38;10.45;;;;;;;14.05;100.00;93775.50;5102131;28;20052;-87
2021/10/18 11:47:31;;;;;;;15.75;10.45;;;;;;;14.14;98.41;93774.19;5101957;28;20478;-87
2021/10/18 11:50:20;;;;;;;14.95;10.10;;;;;;;14.25;99.50;93772.66;5088313;28;20374;-88
2021/10/18 11:52:52;;;;;;;21.30;12.38;;;;;;;14.39;99.53;93771.50;5082477;28;20044;-89
2021/10/18 11:55:22;;;;;;;17.88;11.80;;;;;;;14.29;99.14;93733.28;5088297;28;20043;-88
2021/10/18 11:57:51;;;;;;;17.77;12.27;;;;;;;14.56;99.71;93755.38;5084212;28;20088;-87
2021/10/18 12:00:24;;;;;;;21.02;13.57;;;;;;;14.54;97.57;93739.31;5082513;28;20052;-88
2021/10/18 12:02:52;;;;;;;12.73;8.73;;;;;;;14.59;96.59;93746.38;5085564;28;20060;-88
2021/10/18 12:05:23;;;;;;;13.27;8.68;;;;;;;14.67;97.81;93767.53;5085960;28;20055;-87
2021/10/18 12:07:51;;;;;;;12.23;8.85;;;;;;;14.69;97.88;93769.91;5087913;28;20058;-89
2021/10/18 12:10:22;;;;;;;12.68;8.20;;;;;;;14.87;96.69;93763.13;5086547;28;20047;-89
2021/10/18 12:13:12;;;;;;;14.45;10.40;;;;;;;15.00;96.00;93762.13;5087664;28;20055;-90
2021/10/18 12:16:12;;;;;;;16.05;10.00;;;;;;;14.38;96.53;93660.59;5087327;28;20056;-93
2021/10/18 12:18:45;;;;;;;13.73;8.95;;;;;;;15.11;95.87;93751.00;5087756;28;20119;-94
2021/10/18 12:21:14;;;;;;;15.85;9.63;;;;;;;14.60;95.89;93750.53;5086454;28;20052;-88
2021/10/18 12:23:52;;;;;;;13.57;9.45;;;;;;;13.95;99.56;93755.34;5086140;28;20052;-88
2021/10/18 12:26:21;;;;;;;15.45;10.50;;;;;;;13.59;100.00;93747.41;5084097;28;20089;-87
2021/10/18 12:28:52;;;;;;;13.82;9.43;;;;;;;12.95;100.00;93753.50;5085237;28;20056;-87
2021/10/18 12:31:36;;;;;;;13.10;7.40;;;;;;;12.48;100.00;93761.53;5086650;28;20486;-87